sensor_id;sensor_type;location;lat;lon;timestamp;P1;durP1;ratioP1;P2;durP2;ratioP2
17283;SDS011;8760;52.248;20.952;2023-06-26T00:00:02;9.70;;;7.30;;
17283;SDS011;8760;52.248;20.952;2023-06-26T00:02:30;11.48;;;7.30;;
17283;SDS011;8760;52.248;20.952;2023-06-26T00:04:58;8.98;;;7.22;;
17283;SDS011;8760;52.248;20.952;2023-06-26T00:07:27;11.80;;;7.47;;
17283;SDS011;8760;52.248;20.952;2023-06-26T00:09:54;9.10;;;7.38;;
17283;SDS011;8760;52.248;20.952;2023-06-26T00:12:21;11.82;;;7.90;;
17283;SDS011;8760;52.248;20.952;2023-06-26T00:14:49;9.82;;;7.30;;
17283;SDS011;8760;52.248;20.952;2023-06-26T00:17:16;10.32;;;7.88;;
17283;SDS011;8760;52.248;20.952;2023-06-26T00:19:43;10.13;;;7.55;;
17283;SDS011;8760;52.248;20.952;2023-06-26T00:22:10;10.80;;;7.85;;
17283;SDS011;8760;52.248;20.952;2023-06-26T00:24:37;8.80;;;7.68;;
17283;SDS011;8760;52.248;20.952;2023-06-26T00:27:04;10.35;;;8.13;;
17283;SDS011;8760;52.248;20.952;2023-06-26T00:29:31;10.45;;;8.02;;
17283;SDS011;8760;52.248;20.952;2023-06-26T00:31:59;11.30;;;8.00;;
17283;SDS011;8760;52.248;20.952;2023-06-26T00:34:26;9.60;;;8.23;;
17283;SDS011;8760;52.248;20.952;2023-06-26T00:36:53;13.30;;;8.65;;
17283;SDS011;8760;52.248;20.952;2023-06-26T00:39:20;9.95;;;8.20;;
17283;SDS011;8760;52.248;20.952;2023-06-26T00:41:47;10.25;;;7.82;;
17283;SDS011;8760;52.248;20.952;2023-06-26T00:44:14;12.93;;;8.32;;
17283;SDS011;8760;52.248;20.952;2023-06-26T00:46:40;10.20;;;8.00;;
17283;SDS011;8760;52.248;20.952;2023-06-26T00:49:09;11.48;;;7.85;;
17283;SDS011;8760;52.248;20.952;2023-06-26T00:51:36;11.55;;;7.60;;
17283;SDS011;8760;52.248;20.952;2023-06-26T00:54:03;10.98;;;8.15;;
17283;SDS011;8760;52.248;20.952;2023-06-26T00:56:31;10.57;;;8.85;;
17283;SDS011;8760;52.248;20.952;2023-06-26T00:58:58;10.30;;;8.77;;
17283;SDS011;8760;52.248;20.952;2023-06-26T01:01:25;12.80;;;8.88;;
17283;SDS011;8760;52.248;20.952;2023-06-26T01:03:52;13.05;;;8.68;;
17283;SDS011;8760;52.248;20.952;2023-06-26T01:06:21;10.73;;;8.55;;
17283;SDS011;8760;52.248;20.952;2023-06-26T01:08:49;9.93;;;8.63;;
17283;SDS011;8760;52.248;20.952;2023-06-26T01:11:17;10.48;;;9.15;;
17283;SDS011;8760;52.248;20.952;2023-06-26T01:13:44;13.82;;;8.93;;
17283;SDS011;8760;52.248;20.952;2023-06-26T01:16:12;11.48;;;8.85;;
17283;SDS011;8760;52.248;20.952;2023-06-26T01:18:41;9.00;;;8.10;;
17283;SDS011;8760;52.248;20.952;2023-06-26T01:21:10;11.18;;;8.80;;
17283;SDS011;8760;52.248;20.952;2023-06-26T01:23:45;12.50;;;9.00;;
17283;SDS011;8760;52.248;20.952;2023-06-26T01:26:26;12.48;;;9.35;;
17283;SDS011;8760;52.248;20.952;2023-06-26T01:28:55;12.30;;;9.35;;
17283;SDS011;8760;52.248;20.952;2023-06-26T01:31:24;12.13;;;8.73;;
17283;SDS011;8760;52.248;20.952;2023-06-26T01:33:53;12.00;;;9.50;;
17283;SDS011;8760;52.248;20.952;2023-06-26T01:36:21;13.73;;;9.07;;
17283;SDS011;8760;52.248;20.952;2023-06-26T01:38:48;10.48;;;9.15;;
17283;SDS011;8760;52.248;20.952;2023-06-26T01:41:16;10.40;;;8.32;;
17283;SDS011;8760;52.248;20.952;2023-06-26T01:43:46;13.95;;;8.73;;
17283;SDS011;8760;52.248;20.952;2023-06-26T01:46:24;10.30;;;8.10;;
17283;SDS011;8760;52.248;20.952;2023-06-26T01:48:55;15.43;;;9.30;;
17283;SDS011;8760;52.248;20.952;2023-06-26T01:51:30;12.32;;;8.98;;
17283;SDS011;8760;52.248;20.952;2023-06-26T01:53:59;9.88;;;8.80;;
17283;SDS011;8760;52.248;20.952;2023-06-26T01:56:27;11.40;;;8.88;;
17283;SDS011;8760;52.248;20.952;2023-06-26T01:58:56;11.55;;;8.98;;
17283;SDS011;8760;52.248;20.952;2023-06-26T02:01:26;12.60;;;8.60;;
17283;SDS011;8760;52.248;20.952;2023-06-26T02:03:52;10.35;;;9.13;;
17283;SDS011;8760;52.248;20.952;2023-06-26T02:06:19;11.50;;;8.95;;
17283;SDS011;8760;52.248;20.952;2023-06-26T02:08:46;9.80;;;8.52;;
17283;SDS011;8760;52.248;20.952;2023-06-26T02:11:13;13.57;;;8.80;;
17283;SDS011;8760;52.248;20.952;2023-06-26T02:13:40;13.57;;;8.90;;
17283;SDS011;8760;52.248;20.952;2023-06-26T02:16:08;11.07;;;9.00;;
17283;SDS011;8760;52.248;20.952;2023-06-26T02:18:35;9.40;;;8.25;;
17283;SDS011;8760;52.248;20.952;2023-06-26T02:21:03;10.98;;;8.65;;
17283;SDS011;8760;52.248;20.952;2023-06-26T02:23:30;11.73;;;8.73;;
17283;SDS011;8760;52.248;20.952;2023-06-26T02:25:57;11.70;;;9.65;;
17283;SDS011;8760;52.248;20.952;2023-06-26T02:28:24;11.15;;;9.30;;
17283;SDS011;8760;52.248;20.952;2023-06-26T02:30:51;12.80;;;9.05;;
17283;SDS011;8760;52.248;20.952;2023-06-26T02:33:19;13.25;;;8.88;;
17283;SDS011;8760;52.248;20.952;2023-06-26T02:35:46;11.65;;;9.70;;
17283;SDS011;8760;52.248;20.952;2023-06-26T02:38:15;12.27;;;9.27;;
17283;SDS011;8760;52.248;20.952;2023-06-26T02:40:42;13.70;;;9.13;;
17283;SDS011;8760;52.248;20.952;2023-06-26T02:43:08;12.77;;;8.65;;
17283;SDS011;8760;52.248;20.952;2023-06-26T02:45:35;10.88;;;9.18;;
17283;SDS011;8760;52.248;20.952;2023-06-26T02:48:02;10.15;;;8.90;;
17283;SDS011;8760;52.248;20.952;2023-06-26T02:50:31;10.00;;;8.88;;
17283;SDS011;8760;52.248;20.952;2023-06-26T02:52:57;10.77;;;8.75;;
17283;SDS011;8760;52.248;20.952;2023-06-26T02:55:24;11.90;;;8.52;;
17283;SDS011;8760;52.248;20.952;2023-06-26T02:57:51;11.75;;;8.93;;
17283;SDS011;8760;52.248;20.952;2023-06-26T03:00:18;11.98;;;8.82;;
17283;SDS011;8760;52.248;20.952;2023-06-26T03:02:45;10.82;;;8.70;;
17283;SDS011;8760;52.248;20.952;2023-06-26T03:05:12;11.43;;;8.75;;
17283;SDS011;8760;52.248;20.952;2023-06-26T03:07:40;10.40;;;8.45;;
17283;SDS011;8760;52.248;20.952;2023-06-26T03:10:07;11.85;;;9.23;;
17283;SDS011;8760;52.248;20.952;2023-06-26T03:12:34;11.82;;;8.88;;
17283;SDS011;8760;52.248;20.952;2023-06-26T03:15:01;9.93;;;8.63;;
17283;SDS011;8760;52.248;20.952;2023-06-26T03:17:28;11.45;;;8.60;;
17283;SDS011;8760;52.248;20.952;2023-06-26T03:19:55;11.15;;;8.55;;
17283;SDS011;8760;52.248;20.952;2023-06-26T03:22:21;10.13;;;8.23;;
17283;SDS011;8760;52.248;20.952;2023-06-26T03:24:50;10.40;;;8.57;;
17283;SDS011;8760;52.248;20.952;2023-06-26T03:27:16;10.40;;;8.50;;
17283;SDS011;8760;52.248;20.952;2023-06-26T03:29:43;11.27;;;8.90;;
17283;SDS011;8760;52.248;20.952;2023-06-26T03:32:10;11.23;;;8.80;;
17283;SDS011;8760;52.248;20.952;2023-06-26T03:34:37;10.20;;;8.80;;
17283;SDS011;8760;52.248;20.952;2023-06-26T03:37:04;12.73;;;9.55;;
17283;SDS011;8760;52.248;20.952;2023-06-26T03:39:31;11.02;;;9.07;;
17283;SDS011;8760;52.248;20.952;2023-06-26T03:41:59;11.02;;;8.43;;
17283;SDS011;8760;52.248;20.952;2023-06-26T03:44:26;13.05;;;9.00;;
17283;SDS011;8760;52.248;20.952;2023-06-26T03:46:53;10.15;;;8.52;;
17283;SDS011;8760;52.248;20.952;2023-06-26T03:49:20;11.27;;;8.70;;
17283;SDS011;8760;52.248;20.952;2023-06-26T03:51:47;14.75;;;9.85;;
17283;SDS011;8760;52.248;20.952;2023-06-26T03:54:14;11.98;;;9.00;;
17283;SDS011;8760;52.248;20.952;2023-06-26T03:56:40;14.65;;;9.10;;
17283;SDS011;8760;52.248;20.952;2023-06-26T03:59:09;14.32;;;9.25;;
17283;SDS011;8760;52.248;20.952;2023-06-26T04:01:36;13.93;;;8.85;;
17283;SDS011;8760;52.248;20.952;2023-06-26T04:04:03;14.63;;;9.55;;
17283;SDS011;8760;52.248;20.952;2023-06-26T04:06:30;12.43;;;8.50;;
17283;SDS011;8760;52.248;20.952;2023-06-26T04:08:58;12.20;;;8.40;;
17283;SDS011;8760;52.248;20.952;2023-06-26T04:11:25;13.18;;;8.65;;
17283;SDS011;8760;52.248;20.952;2023-06-26T04:13:52;13.95;;;9.07;;
17283;SDS011;8760;52.248;20.952;2023-06-26T04:16:21;14.43;;;9.20;;
17283;SDS011;8760;52.248;20.952;2023-06-26T04:18:50;11.07;;;8.50;;
17283;SDS011;8760;52.248;20.952;2023-06-26T04:21:17;13.90;;;9.60;;
17283;SDS011;8760;52.248;20.952;2023-06-26T04:23:45;11.68;;;8.40;;
17283;SDS011;8760;52.248;20.952;2023-06-26T04:26:12;12.70;;;9.27;;
17283;SDS011;8760;52.248;20.952;2023-06-26T04:28:40;11.30;;;8.43;;
17283;SDS011;8760;52.248;20.952;2023-06-26T04:31:07;13.77;;;8.55;;
17283;SDS011;8760;52.248;20.952;2023-06-26T04:33:36;15.23;;;10.05;;
17283;SDS011;8760;52.248;20.952;2023-06-26T04:36:03;11.60;;;9.00;;
17283;SDS011;8760;52.248;20.952;2023-06-26T04:38:31;14.15;;;9.15;;
17283;SDS011;8760;52.248;20.952;2023-06-26T04:40:59;13.35;;;9.38;;
17283;SDS011;8760;52.248;20.952;2023-06-26T04:43:26;13.38;;;8.82;;
17283;SDS011;8760;52.248;20.952;2023-06-26T04:45:53;16.05;;;11.02;;
17283;SDS011;8760;52.248;20.952;2023-06-26T04:48:20;13.23;;;9.55;;
17283;SDS011;8760;52.248;20.952;2023-06-26T04:50:48;15.18;;;9.00;;
17283;SDS011;8760;52.248;20.952;2023-06-26T04:53:19;13.60;;;9.63;;
17283;SDS011;8760;52.248;20.952;2023-06-26T04:55:46;14.23;;;8.93;;
17283;SDS011;8760;52.248;20.952;2023-06-26T04:58:13;12.18;;;9.68;;
17283;SDS011;8760;52.248;20.952;2023-06-26T05:00:41;14.77;;;9.65;;
17283;SDS011;8760;52.248;20.952;2023-06-26T05:03:08;11.77;;;9.10;;
17283;SDS011;8760;52.248;20.952;2023-06-26T05:05:35;15.68;;;10.15;;
17283;SDS011;8760;52.248;20.952;2023-06-26T05:08:14;13.82;;;8.98;;
17283;SDS011;8760;52.248;20.952;2023-06-26T05:10:42;12.13;;;9.52;;
17283;SDS011;8760;52.248;20.952;2023-06-26T05:13:09;26.65;;;10.48;;
17283;SDS011;8760;52.248;20.952;2023-06-26T05:15:36;13.82;;;8.30;;
17283;SDS011;8760;52.248;20.952;2023-06-26T05:18:03;10.75;;;8.73;;
17283;SDS011;8760;52.248;20.952;2023-06-26T05:20:31;17.52;;;9.45;;
17283;SDS011;8760;52.248;20.952;2023-06-26T05:22:58;36.28;;;10.18;;
17283;SDS011;8760;52.248;20.952;2023-06-26T05:25:27;12.40;;;8.38;;
17283;SDS011;8760;52.248;20.952;2023-06-26T05:27:56;11.70;;;8.20;;
17283;SDS011;8760;52.248;20.952;2023-06-26T05:30:23;11.88;;;8.43;;
17283;SDS011;8760;52.248;20.952;2023-06-26T05:32:51;24.80;;;9.05;;
17283;SDS011;8760;52.248;20.952;2023-06-26T05:35:19;12.95;;;9.40;;
17283;SDS011;8760;52.248;20.952;2023-06-26T05:37:47;13.10;;;9.20;;
17283;SDS011;8760;52.248;20.952;2023-06-26T05:40:16;14.55;;;9.98;;
17283;SDS011;8760;52.248;20.952;2023-06-26T05:42:46;14.10;;;11.63;;
17283;SDS011;8760;52.248;20.952;2023-06-26T05:45:13;17.25;;;8.57;;
17283;SDS011;8760;52.248;20.952;2023-06-26T05:47:40;15.23;;;8.00;;
17283;SDS011;8760;52.248;20.952;2023-06-26T05:50:07;10.15;;;8.00;;
17283;SDS011;8760;52.248;20.952;2023-06-26T05:52:36;14.73;;;8.35;;
17283;SDS011;8760;52.248;20.952;2023-06-26T05:55:04;20.42;;;8.88;;
17283;SDS011;8760;52.248;20.952;2023-06-26T05:57:31;13.35;;;8.88;;
17283;SDS011;8760;52.248;20.952;2023-06-26T06:00:01;12.02;;;7.25;;
17283;SDS011;8760;52.248;20.952;2023-06-26T06:02:30;9.90;;;7.80;;
17283;SDS011;8760;52.248;20.952;2023-06-26T06:04:57;12.63;;;7.43;;
17283;SDS011;8760;52.248;20.952;2023-06-26T06:07:24;9.85;;;7.65;;
17283;SDS011;8760;52.248;20.952;2023-06-26T06:09:51;8.82;;;7.10;;
17283;SDS011;8760;52.248;20.952;2023-06-26T06:12:18;11.70;;;7.70;;
17283;SDS011;8760;52.248;20.952;2023-06-26T06:14:45;7.57;;;6.18;;
17283;SDS011;8760;52.248;20.952;2023-06-26T06:17:13;9.70;;;6.25;;
17283;SDS011;8760;52.248;20.952;2023-06-26T06:19:40;8.32;;;5.97;;
17283;SDS011;8760;52.248;20.952;2023-06-26T06:22:07;9.73;;;6.22;;
17283;SDS011;8760;52.248;20.952;2023-06-26T06:24:34;9.15;;;6.32;;
17283;SDS011;8760;52.248;20.952;2023-06-26T06:27:00;9.77;;;5.45;;
17283;SDS011;8760;52.248;20.952;2023-06-26T06:29:27;10.65;;;5.60;;
17283;SDS011;8760;52.248;20.952;2023-06-26T06:31:54;6.03;;;4.80;;
17283;SDS011;8760;52.248;20.952;2023-06-26T06:34:23;6.93;;;5.43;;
17283;SDS011;8760;52.248;20.952;2023-06-26T06:36:50;5.72;;;4.57;;
17283;SDS011;8760;52.248;20.952;2023-06-26T06:39:17;6.93;;;5.10;;
17283;SDS011;8760;52.248;20.952;2023-06-26T06:41:44;6.00;;;4.80;;
17283;SDS011;8760;52.248;20.952;2023-06-26T06:44:11;5.82;;;5.20;;
17283;SDS011;8760;52.248;20.952;2023-06-26T06:46:38;7.57;;;4.57;;
17283;SDS011;8760;52.248;20.952;2023-06-26T06:49:05;6.45;;;4.50;;
17283;SDS011;8760;52.248;20.952;2023-06-26T06:51:33;5.63;;;4.40;;
17283;SDS011;8760;52.248;20.952;2023-06-26T06:54:00;8.85;;;8.00;;
17283;SDS011;8760;52.248;20.952;2023-06-26T06:56:28;7.97;;;5.78;;
17283;SDS011;8760;52.248;20.952;2023-06-26T06:58:55;8.88;;;4.88;;
17283;SDS011;8760;52.248;20.952;2023-06-26T07:01:21;6.45;;;4.88;;
17283;SDS011;8760;52.248;20.952;2023-06-26T07:03:48;7.72;;;4.60;;
17283;SDS011;8760;52.248;20.952;2023-06-26T07:06:15;6.45;;;4.60;;
17283;SDS011;8760;52.248;20.952;2023-06-26T07:08:43;5.25;;;4.85;;
17283;SDS011;8760;52.248;20.952;2023-06-26T07:11:10;4.68;;;4.25;;
17283;SDS011;8760;52.248;20.952;2023-06-26T07:13:37;4.78;;;4.38;;
17283;SDS011;8760;52.248;20.952;2023-06-26T07:16:04;4.43;;;4.00;;
17283;SDS011;8760;52.248;20.952;2023-06-26T07:18:31;4.50;;;4.10;;
17283;SDS011;8760;52.248;20.952;2023-06-26T07:20:58;6.32;;;4.43;;
17283;SDS011;8760;52.248;20.952;2023-06-26T07:23:25;5.63;;;4.13;;
17283;SDS011;8760;52.248;20.952;2023-06-26T07:25:53;4.07;;;3.67;;
17283;SDS011;8760;52.248;20.952;2023-06-26T07:28:20;5.07;;;4.57;;
17283;SDS011;8760;52.248;20.952;2023-06-26T07:30:47;5.03;;;4.53;;
17283;SDS011;8760;52.248;20.952;2023-06-26T07:33:14;5.72;;;4.78;;
17283;SDS011;8760;52.248;20.952;2023-06-26T07:35:41;12.93;;;5.15;;
17283;SDS011;8760;52.248;20.952;2023-06-26T07:38:08;4.72;;;4.18;;
17283;SDS011;8760;52.248;20.952;2023-06-26T07:40:34;4.78;;;4.32;;
17283;SDS011;8760;52.248;20.952;2023-06-26T07:43:02;6.85;;;3.88;;
17283;SDS011;8760;52.248;20.952;2023-06-26T07:45:29;5.68;;;4.25;;
17283;SDS011;8760;52.248;20.952;2023-06-26T07:47:56;5.22;;;4.25;;
17283;SDS011;8760;52.248;20.952;2023-06-26T07:50:23;5.47;;;4.22;;
17283;SDS011;8760;52.248;20.952;2023-06-26T07:52:51;5.38;;;4.75;;
17283;SDS011;8760;52.248;20.952;2023-06-26T07:55:18;13.65;;;4.88;;
17283;SDS011;8760;52.248;20.952;2023-06-26T07:57:45;5.30;;;4.43;;
17283;SDS011;8760;52.248;20.952;2023-06-26T08:00:13;6.80;;;4.68;;
17283;SDS011;8760;52.248;20.952;2023-06-26T08:02:41;6.00;;;5.28;;
17283;SDS011;8760;52.248;20.952;2023-06-26T08:05:08;4.80;;;4.30;;
17283;SDS011;8760;52.248;20.952;2023-06-26T08:07:35;4.90;;;4.50;;
17283;SDS011;8760;52.248;20.952;2023-06-26T08:10:02;4.95;;;4.55;;
17283;SDS011;8760;52.248;20.952;2023-06-26T08:12:29;5.20;;;4.57;;
17283;SDS011;8760;52.248;20.952;2023-06-26T08:14:55;6.00;;;4.63;;
17283;SDS011;8760;52.248;20.952;2023-06-26T08:17:24;6.88;;;5.35;;
17283;SDS011;8760;52.248;20.952;2023-06-26T08:19:50;8.50;;;4.80;;
17283;SDS011;8760;52.248;20.952;2023-06-26T08:22:17;8.02;;;4.80;;
17283;SDS011;8760;52.248;20.952;2023-06-26T08:24:44;6.05;;;4.35;;
17283;SDS011;8760;52.248;20.952;2023-06-26T08:27:11;7.55;;;4.20;;
17283;SDS011;8760;52.248;20.952;2023-06-26T08:29:38;4.20;;;3.80;;
17283;SDS011;8760;52.248;20.952;2023-06-26T08:32:05;3.97;;;3.67;;
17283;SDS011;8760;52.248;20.952;2023-06-26T08:34:33;4.85;;;4.07;;
17283;SDS011;8760;52.248;20.952;2023-06-26T08:37:00;4.25;;;3.85;;
17283;SDS011;8760;52.248;20.952;2023-06-26T08:39:27;4.10;;;3.70;;
17283;SDS011;8760;52.248;20.952;2023-06-26T08:41:54;4.40;;;3.97;;
17283;SDS011;8760;52.248;20.952;2023-06-26T08:44:21;6.43;;;4.65;;
17283;SDS011;8760;52.248;20.952;2023-06-26T08:46:49;6.28;;;4.32;;
17283;SDS011;8760;52.248;20.952;2023-06-26T08:49:18;6.03;;;4.22;;
17283;SDS011;8760;52.248;20.952;2023-06-26T08:51:51;4.65;;;4.15;;
17283;SDS011;8760;52.248;20.952;2023-06-26T08:54:22;4.80;;;4.40;;
17283;SDS011;8760;52.248;20.952;2023-06-26T08:56:57;7.00;;;5.30;;
17283;SDS011;8760;52.248;20.952;2023-06-26T08:59:25;5.50;;;5.00;;
17283;SDS011;8760;52.248;20.952;2023-06-26T09:01:52;4.90;;;4.03;;
17283;SDS011;8760;52.248;20.952;2023-06-26T09:04:19;9.93;;;4.05;;
17283;SDS011;8760;52.248;20.952;2023-06-26T09:06:46;6.40;;;4.50;;
17283;SDS011;8760;52.248;20.952;2023-06-26T09:09:14;4.40;;;4.00;;
17283;SDS011;8760;52.248;20.952;2023-06-26T09:11:41;5.82;;;4.30;;
17283;SDS011;8760;52.248;20.952;2023-06-26T09:14:08;7.57;;;4.55;;
17283;SDS011;8760;52.248;20.952;2023-06-26T09:16:39;5.80;;;4.13;;
17283;SDS011;8760;52.248;20.952;2023-06-26T09:19:08;5.03;;;3.75;;
17283;SDS011;8760;52.248;20.952;2023-06-26T09:21:37;6.32;;;4.20;;
17283;SDS011;8760;52.248;20.952;2023-06-26T09:24:05;4.90;;;3.95;;
17283;SDS011;8760;52.248;20.952;2023-06-26T09:26:35;6.53;;;3.75;;
17283;SDS011;8760;52.248;20.952;2023-06-26T09:29:02;9.13;;;4.50;;
17283;SDS011;8760;52.248;20.952;2023-06-26T09:31:29;4.45;;;4.03;;
17283;SDS011;8760;52.248;20.952;2023-06-26T09:33:57;6.55;;;4.28;;
17283;SDS011;8760;52.248;20.952;2023-06-26T09:36:27;8.82;;;4.30;;
17283;SDS011;8760;52.248;20.952;2023-06-26T09:38:58;5.22;;;3.90;;
17283;SDS011;8760;52.248;20.952;2023-06-26T09:41:25;4.35;;;3.70;;
17283;SDS011;8760;52.248;20.952;2023-06-26T09:43:55;4.10;;;3.70;;
17283;SDS011;8760;52.248;20.952;2023-06-26T09:46:28;4.78;;;3.50;;
17283;SDS011;8760;52.248;20.952;2023-06-26T09:48:58;6.95;;;3.75;;
17283;SDS011;8760;52.248;20.952;2023-06-26T09:51:27;7.15;;;3.95;;
17283;SDS011;8760;52.248;20.952;2023-06-26T09:53:55;8.10;;;3.80;;
17283;SDS011;8760;52.248;20.952;2023-06-26T09:56:23;3.90;;;3.60;;
17283;SDS011;8760;52.248;20.952;2023-06-26T09:58:50;7.50;;;4.15;;
17283;SDS011;8760;52.248;20.952;2023-06-26T10:01:19;5.70;;;3.58;;
17283;SDS011;8760;52.248;20.952;2023-06-26T10:03:46;5.82;;;3.30;;
17283;SDS011;8760;52.248;20.952;2023-06-26T10:06:13;9.82;;;6.25;;
17283;SDS011;8760;52.248;20.952;2023-06-26T10:08:44;5.05;;;3.92;;
17283;SDS011;8760;52.248;20.952;2023-06-26T10:11:15;4.40;;;4.00;;
17283;SDS011;8760;52.248;20.952;2023-06-26T10:13:45;3.50;;;2.97;;
17283;SDS011;8760;52.248;20.952;2023-06-26T10:16:16;3.47;;;3.08;;
17283;SDS011;8760;52.248;20.952;2023-06-26T10:18:49;4.47;;;3.10;;
17283;SDS011;8760;52.248;20.952;2023-06-26T10:21:19;4.40;;;3.58;;
17283;SDS011;8760;52.248;20.952;2023-06-26T10:23:48;4.55;;;3.80;;
17283;SDS011;8760;52.248;20.952;2023-06-26T10:26:18;3.80;;;3.50;;
17283;SDS011;8760;52.248;20.952;2023-06-26T10:28:47;3.97;;;3.38;;
17283;SDS011;8760;52.248;20.952;2023-06-26T10:31:17;3.90;;;3.50;;
17283;SDS011;8760;52.248;20.952;2023-06-26T10:33:48;5.10;;;3.42;;
17283;SDS011;8760;52.248;20.952;2023-06-26T10:36:16;8.38;;;3.97;;
17283;SDS011;8760;52.248;20.952;2023-06-26T10:38:51;5.03;;;3.55;;
17283;SDS011;8760;52.248;20.952;2023-06-26T10:41:19;3.90;;;3.47;;
17283;SDS011;8760;52.248;20.952;2023-06-26T10:43:51;5.50;;;3.33;;
17283;SDS011;8760;52.248;20.952;2023-06-26T10:46:34;5.55;;;4.63;;
17283;SDS011;8760;52.248;20.952;2023-06-26T10:49:15;4.78;;;4.07;;
17283;SDS011;8760;52.248;20.952;2023-06-26T10:51:45;3.97;;;3.45;;
17283;SDS011;8760;52.248;20.952;2023-06-26T10:54:14;4.75;;;3.58;;
17283;SDS011;8760;52.248;20.952;2023-06-26T10:56:44;3.67;;;3.22;;
17283;SDS011;8760;52.248;20.952;2023-06-26T10:59:13;5.28;;;4.00;;
17283;SDS011;8760;52.248;20.952;2023-06-26T11:01:43;5.55;;;3.25;;
17283;SDS011;8760;52.248;20.952;2023-06-26T11:04:11;5.50;;;4.43;;
17283;SDS011;8760;52.248;20.952;2023-06-26T11:06:40;9.50;;;8.52;;
17283;SDS011;8760;52.248;20.952;2023-06-26T11:09:09;4.30;;;3.90;;
17283;SDS011;8760;52.248;20.952;2023-06-26T11:14:31;3.85;;;3.47;;
17283;SDS011;8760;52.248;20.952;2023-06-26T11:17:01;7.15;;;3.90;;
17283;SDS011;8760;52.248;20.952;2023-06-26T11:19:29;4.18;;;3.60;;
17283;SDS011;8760;52.248;20.952;2023-06-26T11:22:01;4.25;;;3.85;;
17283;SDS011;8760;52.248;20.952;2023-06-26T11:24:30;3.80;;;3.25;;
17283;SDS011;8760;52.248;20.952;2023-06-26T11:26:59;3.90;;;3.50;;
17283;SDS011;8760;52.248;20.952;2023-06-26T11:29:28;16.52;;;4.65;;
17283;SDS011;8760;52.248;20.952;2023-06-26T11:32:00;5.47;;;3.88;;
17283;SDS011;8760;52.248;20.952;2023-06-26T11:34:30;4.30;;;3.30;;
17283;SDS011;8760;52.248;20.952;2023-06-26T11:36:58;8.75;;;3.60;;
17283;SDS011;8760;52.248;20.952;2023-06-26T11:39:27;7.25;;;3.25;;
17283;SDS011;8760;52.248;20.952;2023-06-26T11:41:55;5.20;;;3.13;;
17283;SDS011;8760;52.248;20.952;2023-06-26T11:44:22;12.35;;;4.40;;
17283;SDS011;8760;52.248;20.952;2023-06-26T11:46:51;6.25;;;3.40;;
17283;SDS011;8760;52.248;20.952;2023-06-26T11:49:22;3.75;;;3.00;;
17283;SDS011;8760;52.248;20.952;2023-06-26T11:51:51;4.35;;;3.80;;
17283;SDS011;8760;52.248;20.952;2023-06-26T11:54:25;3.35;;;2.97;;
17283;SDS011;8760;52.248;20.952;2023-06-26T11:56:56;4.43;;;3.60;;
17283;SDS011;8760;52.248;20.952;2023-06-26T11:59:24;6.88;;;6.15;;
17283;SDS011;8760;52.248;20.952;2023-06-26T12:01:59;3.85;;;3.40;;
17283;SDS011;8760;52.248;20.952;2023-06-26T12:04:27;5.28;;;3.88;;
17283;SDS011;8760;52.248;20.952;2023-06-26T12:06:55;5.45;;;4.25;;
17283;SDS011;8760;52.248;20.952;2023-06-26T12:09:23;4.72;;;3.13;;
17283;SDS011;8760;52.248;20.952;2023-06-26T12:11:51;7.78;;;5.22;;
17283;SDS011;8760;52.248;20.952;2023-06-26T12:14:20;6.80;;;4.00;;
17283;SDS011;8760;52.248;20.952;2023-06-26T12:16:48;4.88;;;3.70;;
17283;SDS011;8760;52.248;20.952;2023-06-26T12:19:15;4.30;;;3.40;;
17283;SDS011;8760;52.248;20.952;2023-06-26T12:21:47;3.95;;;3.17;;
17283;SDS011;8760;52.248;20.952;2023-06-26T12:24:18;5.65;;;3.38;;
17283;SDS011;8760;52.248;20.952;2023-06-26T12:26:46;6.72;;;3.70;;
17283;SDS011;8760;52.248;20.952;2023-06-26T12:29:16;3.97;;;3.10;;
17283;SDS011;8760;52.248;20.952;2023-06-26T12:31:45;5.53;;;3.25;;
17283;SDS011;8760;52.248;20.952;2023-06-26T12:34:15;5.47;;;3.38;;
17283;SDS011;8760;52.248;20.952;2023-06-26T12:36:44;5.38;;;3.30;;
17283;SDS011;8760;52.248;20.952;2023-06-26T12:39:16;3.60;;;3.30;;
17283;SDS011;8760;52.248;20.952;2023-06-26T12:41:44;6.38;;;3.53;;
17283;SDS011;8760;52.248;20.952;2023-06-26T12:44:22;4.78;;;3.47;;
17283;SDS011;8760;52.248;20.952;2023-06-26T12:46:53;4.43;;;3.28;;
17283;SDS011;8760;52.248;20.952;2023-06-26T12:49:28;3.88;;;3.47;;
17283;SDS011;8760;52.248;20.952;2023-06-26T12:51:57;4.05;;;3.30;;
17283;SDS011;8760;52.248;20.952;2023-06-26T12:54:25;3.70;;;3.40;;
17283;SDS011;8760;52.248;20.952;2023-06-26T12:56:52;3.90;;;3.13;;
17283;SDS011;8760;52.248;20.952;2023-06-26T12:59:19;9.85;;;3.50;;
17283;SDS011;8760;52.248;20.952;2023-06-26T13:01:46;3.53;;;3.22;;
17283;SDS011;8760;52.248;20.952;2023-06-26T13:04:13;6.32;;;3.58;;
17283;SDS011;8760;52.248;20.952;2023-06-26T13:06:40;10.45;;;3.40;;
17283;SDS011;8760;52.248;20.952;2023-06-26T13:09:07;6.35;;;3.70;;
17283;SDS011;8760;52.248;20.952;2023-06-26T13:11:35;10.38;;;3.90;;
17283;SDS011;8760;52.248;20.952;2023-06-26T13:14:03;5.18;;;3.22;;
17283;SDS011;8760;52.248;20.952;2023-06-26T13:16:30;6.30;;;3.47;;
17283;SDS011;8760;52.248;20.952;2023-06-26T13:18:57;5.53;;;3.83;;
17283;SDS011;8760;52.248;20.952;2023-06-26T13:21:25;5.28;;;3.60;;
17283;SDS011;8760;52.248;20.952;2023-06-26T13:23:52;5.20;;;2.85;;
17283;SDS011;8760;52.248;20.952;2023-06-26T13:26:19;3.95;;;3.65;;
17283;SDS011;8760;52.248;20.952;2023-06-26T13:28:48;4.57;;;2.90;;
17283;SDS011;8760;52.248;20.952;2023-06-26T13:31:15;4.95;;;3.50;;
17283;SDS011;8760;52.248;20.952;2023-06-26T13:33:42;3.55;;;3.25;;
17283;SDS011;8760;52.248;20.952;2023-06-26T13:36:09;3.42;;;3.13;;
17283;SDS011;8760;52.248;20.952;2023-06-26T13:38:38;4.72;;;3.13;;
17283;SDS011;8760;52.248;20.952;2023-06-26T13:41:05;3.65;;;3.25;;
17283;SDS011;8760;52.248;20.952;2023-06-26T13:43:32;18.40;;;4.88;;
17283;SDS011;8760;52.248;20.952;2023-06-26T13:46:00;9.15;;;4.03;;
17283;SDS011;8760;52.248;20.952;2023-06-26T13:48:27;4.80;;;3.60;;
17283;SDS011;8760;52.248;20.952;2023-06-26T13:50:55;5.75;;;3.33;;
17283;SDS011;8760;52.248;20.952;2023-06-26T13:53:22;7.90;;;3.63;;
17283;SDS011;8760;52.248;20.952;2023-06-26T13:55:49;4.65;;;3.58;;
17283;SDS011;8760;52.248;20.952;2023-06-26T13:58:16;3.40;;;3.10;;
17283;SDS011;8760;52.248;20.952;2023-06-26T14:00:44;7.30;;;3.28;;
17283;SDS011;8760;52.248;20.952;2023-06-26T14:03:12;3.75;;;3.38;;
17283;SDS011;8760;52.248;20.952;2023-06-26T14:05:39;6.22;;;3.60;;
17283;SDS011;8760;52.248;20.952;2023-06-26T14:08:07;3.97;;;3.25;;
17283;SDS011;8760;52.248;20.952;2023-06-26T14:10:35;4.93;;;3.50;;
17283;SDS011;8760;52.248;20.952;2023-06-26T14:13:03;3.72;;;3.05;;
17283;SDS011;8760;52.248;20.952;2023-06-26T14:15:30;5.22;;;3.40;;
17283;SDS011;8760;52.248;20.952;2023-06-26T14:17:57;4.93;;;3.80;;
17283;SDS011;8760;52.248;20.952;2023-06-26T14:20:25;3.72;;;3.33;;
17283;SDS011;8760;52.248;20.952;2023-06-26T14:22:52;5.75;;;3.17;;
17283;SDS011;8760;52.248;20.952;2023-06-26T14:25:19;4.15;;;3.20;;
17283;SDS011;8760;52.248;20.952;2023-06-26T14:27:46;4.25;;;3.22;;
17283;SDS011;8760;52.248;20.952;2023-06-26T14:30:13;3.75;;;3.35;;
17283;SDS011;8760;52.248;20.952;2023-06-26T14:32:40;5.40;;;3.53;;
17283;SDS011;8760;52.248;20.952;2023-06-26T14:35:07;4.90;;;3.47;;
17283;SDS011;8760;52.248;20.952;2023-06-26T14:37:35;5.15;;;3.30;;
17283;SDS011;8760;52.248;20.952;2023-06-26T14:40:05;3.92;;;3.63;;
17283;SDS011;8760;52.248;20.952;2023-06-26T14:42:33;3.88;;;3.45;;
17283;SDS011;8760;52.248;20.952;2023-06-26T14:45:00;5.30;;;3.45;;
17283;SDS011;8760;52.248;20.952;2023-06-26T14:47:27;4.75;;;3.55;;
17283;SDS011;8760;52.248;20.952;2023-06-26T14:49:53;5.47;;;3.08;;